Главная страница
METAR-TAF:

METAR-TAF

Аэропорты :

Херингсдорф, Германия

широта: 53-53N, долгота: 014-09E, высота над уровнем моря: 28 м

Текущие метеонаблюдения

Эта сводка был подготовлена 42 минут назад, в 10:50 UTC
Ветер 7 Узел от северо-западный, изменяющийся между западный и северный
Температура 6°C
Влажность 81%
Давление 1028 hPa
Видимость 10 км и более
Рассеянная облачность на высоте 2200 фута

METAR: EDAH 221050Z 31007KT 260V350 9999 BKN022 06/03 Q1028

Время: 12:32 (11:32 UTC)

Прогноз

Эта сводка был подготовлена 3 часа и 32 минут назад, в 08:00 UTC
Прогноз действительный с 22-го 09 UTC до 22-го 18 UTC
Ветер 9 Узел от западно-северо-западный
Видимость 10 км и более
Рассеянная облачность на высоте 3500 фута

TAF: EDAH 220800Z 2209/2218 29009KT 9999 BKN035

Метеонаблюдения и прогнозы для более 4000 аэропортов (сводки METAR и TAF).

Имеющиеся станции представлены на карте желтыми и красными точками.

Чтобы увидеть название станции, наведите на нее мышь.

Затем щелкните, чтобы увидеть метеонаблюдения и метеопрогнозы.

Управление картой: чтобы увеличить масштаб, щелкните зеленые кнопки с черным крестиком; чтобы уменьшить масштаб, щелкните зеленую кнопку с тире; для просмотра соседних карт щелкайте зеленые стрелки.


METAR-TAF: